createdAt,value
2023-01-18T00:01:19.664Z,33.93
2023-01-18T00:03:47.186Z,32.60
2023-01-18T00:06:14.289Z,36.33
2023-01-18T00:08:42.688Z,35.60
2023-01-18T00:11:15.698Z,37.17
2023-01-18T00:13:43.655Z,39.17
2023-01-18T00:16:21.844Z,38.23
2023-01-18T00:18:53.961Z,34.57
2023-01-18T00:21:21.210Z,36.67
2023-01-18T00:23:48.307Z,33.53
2023-01-18T00:26:15.768Z,32.63
2023-01-18T00:28:43.012Z,32.83
2023-01-18T00:31:16.194Z,34.53
2023-01-18T00:33:47.684Z,36.93
2023-01-18T00:36:16.521Z,38.20
2023-01-18T00:38:43.995Z,37.67
2023-01-18T00:41:11.082Z,31.43
2023-01-18T00:43:41.206Z,33.53
2023-01-18T00:46:17.334Z,34.43
2023-01-18T00:48:44.564Z,35.37
2023-01-18T00:51:17.304Z,32.13
2023-01-18T00:53:45.298Z,31.70
2023-01-18T00:56:15.997Z,33.37
2023-01-18T00:58:43.439Z,34.53
2023-01-18T01:01:11.639Z,41.83
2023-01-18T01:03:57.736Z,41.87
2023-01-18T01:06:44.522Z,37.83
2023-01-18T01:09:20.958Z,34.77
2023-01-18T01:12:07.914Z,31.37
2023-01-18T01:14:58.403Z,29.70
2023-01-18T01:17:44.461Z,28.20
2023-01-18T01:20:30.461Z,29.83
2023-01-18T01:23:15.981Z,28.77
2023-01-18T01:26:01.415Z,28.10
2023-01-18T01:28:28.485Z,28.07
2023-01-18T01:31:02.610Z,22.90
2023-01-18T01:33:31.629Z,23.60
2023-01-18T01:36:04.908Z,23.53
2023-01-18T01:38:32.294Z,21.43
2023-01-18T01:41:13.871Z,21.83
2023-01-18T01:43:52.301Z,19.50
2023-01-18T01:46:48.848Z,21.57
2023-01-18T01:49:40.340Z,25.00
2023-01-18T01:52:10.550Z,22.40
2023-01-18T01:54:50.428Z,23.27
2023-01-18T01:57:24.574Z,20.30
2023-01-18T01:59:59.541Z,21.57
2023-01-18T02:02:27.774Z,20.03
2023-01-18T02:04:55.578Z,24.43
2023-01-18T02:07:24.241Z,20.70
2023-01-18T02:09:52.056Z,18.57
2023-01-18T02:12:19.748Z,19.20
2023-01-18T02:14:47.701Z,17.37
2023-01-18T02:18:09.784Z,18.30
2023-01-18T02:20:56.674Z,19.20
2023-01-18T02:24:02.964Z,21.90
2023-01-18T02:30:11.200Z,23.93
2023-01-18T02:33:07.779Z,20.37
2023-01-18T02:35:52.565Z,20.57
2023-01-18T02:38:30.319Z,17.87
2023-01-18T02:41:12.810Z,16.97
2023-01-18T02:44:02.034Z,17.40
2023-01-18T02:46:36.260Z,18.93
2023-01-18T02:49:13.251Z,16.03
2023-01-18T02:51:40.392Z,20.43
2023-01-18T02:54:09.772Z,18.27
2023-01-18T02:56:44.265Z,18.43
2023-01-18T02:59:46.065Z,23.03
2023-01-18T03:02:19.549Z,18.30
2023-01-18T03:04:55.751Z,20.73
2023-01-18T03:07:39.989Z,22.30
2023-01-18T03:10:10.274Z,18.70
2023-01-18T03:13:10.253Z,21.47
2023-01-18T03:15:51.856Z,19.70
2023-01-18T03:18:34.548Z,19.43
2023-01-18T03:21:05.664Z,20.13
2023-01-18T03:23:40.110Z,22.87
2023-01-18T03:26:14.703Z,24.83
2023-01-18T03:29:03.557Z,21.17
2023-01-18T03:32:35.720Z,24.67
2023-01-18T03:35:10.721Z,20.90
2023-01-18T03:37:41.299Z,15.83
2023-01-18T03:40:18.376Z,19.47
2023-01-18T03:42:52.863Z,18.57
2023-01-18T03:45:42.938Z,17.03
2023-01-18T03:48:10.919Z,17.27
2023-01-18T03:51:02.782Z,20.33
2023-01-18T03:54:00.864Z,18.13
2023-01-18T03:56:42.427Z,17.90
2023-01-18T03:59:10.035Z,14.30
2023-01-18T04:01:37.744Z,13.90
2023-01-18T04:04:04.938Z,18.63
2023-01-18T04:06:33.275Z,16.23
2023-01-18T04:09:00.441Z,17.00
2023-01-18T04:11:27.545Z,22.27
2023-01-18T04:13:54.758Z,19.93
2023-01-18T04:16:22.006Z,18.67
2023-01-18T04:18:49.122Z,22.13
2023-01-18T04:21:16.172Z,16.93
2023-01-18T04:23:43.468Z,15.00
2023-01-18T04:26:11.961Z,14.07
2023-01-18T04:28:39.071Z,12.93
2023-01-18T04:31:06.169Z,13.87
2023-01-18T04:33:33.302Z,13.53
2023-01-18T04:36:00.406Z,19.43
2023-01-18T04:38:28.340Z,7.13
2023-01-18T04:40:55.371Z,7.60
2023-01-18T04:43:22.492Z,7.37
2023-01-18T04:45:55.939Z,5.27
2023-01-18T04:48:24.045Z,6.33
2023-01-18T04:50:52.118Z,5.17
2023-01-18T04:53:19.605Z,4.70
2023-01-18T04:55:46.834Z,4.90
2023-01-18T04:58:15.159Z,5.40
2023-01-18T05:00:42.429Z,7.10
2023-01-18T05:03:13.286Z,4.13
2023-01-18T05:05:40.938Z,7.20
2023-01-18T05:08:08.318Z,3.70
2023-01-18T05:10:35.449Z,3.83
2023-01-18T05:13:02.590Z,3.47
2023-01-18T05:15:29.650Z,3.30
2023-01-18T05:17:56.747Z,5.43
2023-01-18T05:20:23.822Z,2.83
2023-01-18T05:22:50.931Z,4.50
2023-01-18T05:25:18.012Z,3.33
2023-01-18T05:27:45.091Z,3.50
2023-01-18T05:30:12.599Z,3.37
2023-01-18T05:32:39.700Z,3.37
2023-01-18T05:35:07.562Z,3.50
2023-01-18T05:37:34.653Z,2.67
2023-01-18T05:40:01.745Z,2.37
2023-01-18T05:42:28.827Z,2.57
2023-01-18T05:44:55.843Z,7.10
2023-01-18T05:47:22.932Z,2.37
2023-01-18T05:49:50.006Z,4.57
2023-01-18T05:52:17.883Z,3.87
2023-01-18T05:54:44.968Z,4.07
2023-01-18T05:57:12.120Z,5.70
2023-01-18T05:59:39.167Z,5.40
2023-01-18T06:02:06.400Z,4.97
2023-01-18T06:04:33.467Z,4.43
2023-01-18T06:07:00.606Z,4.97
2023-01-18T06:09:30.038Z,5.83
2023-01-18T06:11:57.559Z,6.57
2023-01-18T06:14:24.647Z,12.17
2023-01-18T06:16:51.757Z,10.53
2023-01-18T06:19:18.849Z,7.63
2023-01-18T06:21:45.970Z,9.80
2023-01-18T06:24:13.724Z,9.87
2023-01-18T06:26:40.982Z,10.40
2023-01-18T06:29:08.150Z,7.53
2023-01-18T06:31:35.357Z,10.13
2023-01-18T06:34:09.270Z,10.03
2023-01-18T06:36:40.113Z,7.50
2023-01-18T06:39:07.667Z,8.53
2023-01-18T06:41:34.770Z,6.57
2023-01-18T06:44:01.837Z,5.30
2023-01-18T06:46:29.158Z,7.13
2023-01-18T06:48:56.571Z,5.97
2023-01-18T06:51:25.245Z,6.13
2023-01-18T06:53:52.404Z,4.13
2023-01-18T06:56:19.540Z,3.53
2023-01-18T06:58:46.745Z,5.40
2023-01-18T07:01:13.965Z,4.70
2023-01-18T07:03:41.170Z,7.20
2023-01-18T07:06:08.512Z,8.87
2023-01-18T07:08:35.826Z,6.03
2023-01-18T07:11:07.754Z,6.03
2023-01-18T07:13:36.230Z,5.93
2023-01-18T07:16:03.440Z,6.00
2023-01-18T07:18:30.849Z,5.73
2023-01-18T07:20:59.516Z,5.50
2023-01-18T07:23:27.287Z,5.07
2023-01-18T07:26:05.426Z,5.53
2023-01-18T07:28:34.253Z,6.40
2023-01-18T07:31:01.604Z,4.60
2023-01-18T07:33:30.032Z,3.10
2023-01-18T07:35:58.474Z,2.80
2023-01-18T07:38:26.019Z,3.87
2023-01-18T07:41:02.444Z,4.97
2023-01-18T07:43:30.781Z,2.80
2023-01-18T07:46:00.582Z,4.30
2023-01-18T07:48:28.630Z,5.00
2023-01-18T07:51:00.760Z,5.07
2023-01-18T07:53:29.697Z,4.37
2023-01-18T07:56:01.647Z,4.50
2023-01-18T07:58:29.791Z,3.60
2023-01-18T08:01:06.488Z,4.83
2023-01-18T08:03:34.487Z,2.27
2023-01-18T08:06:03.163Z,2.60
2023-01-18T08:08:30.462Z,3.53
2023-01-18T08:10:59.529Z,4.47
2023-01-18T08:13:27.385Z,4.00
2023-01-18T08:15:55.789Z,5.70
2023-01-18T08:18:23.830Z,5.73
2023-01-18T08:20:51.672Z,5.30
2023-01-18T08:23:19.864Z,6.80
2023-01-18T08:25:47.719Z,13.00
2023-01-18T08:28:15.204Z,17.20
2023-01-18T08:30:45.870Z,11.77
2023-01-18T08:33:13.183Z,11.33
2023-01-18T08:35:47.926Z,5.57
2023-01-18T08:38:16.001Z,3.90
2023-01-18T08:40:43.410Z,3.63
2023-01-18T08:43:11.867Z,3.83
2023-01-18T08:45:39.145Z,4.13
2023-01-18T08:48:08.340Z,4.50
2023-01-18T08:50:36.249Z,9.70
2023-01-18T08:53:04.375Z,3.77
2023-01-18T08:55:31.885Z,4.47
2023-01-18T08:57:59.347Z,3.97
2023-01-18T09:00:30.382Z,3.60
2023-01-18T09:02:59.058Z,3.73
2023-01-18T09:05:27.232Z,2.77
2023-01-18T09:07:55.354Z,2.50
2023-01-18T09:10:23.300Z,4.33
2023-01-18T09:12:52.921Z,4.87
2023-01-18T09:15:21.435Z,4.13
2023-01-18T09:17:48.472Z,3.97
2023-01-18T09:20:18.657Z,3.07
2023-01-18T09:22:48.056Z,3.80
2023-01-18T09:25:18.191Z,3.50
2023-01-18T09:27:46.748Z,4.40
2023-01-18T09:30:16.213Z,3.13
2023-01-18T09:32:43.400Z,3.30
2023-01-18T09:35:10.865Z,3.57
2023-01-18T09:37:38.001Z,3.40
2023-01-18T09:40:05.871Z,3.50
2023-01-18T09:42:41.223Z,4.43
2023-01-18T09:45:26.193Z,3.57
2023-01-18T09:48:04.066Z,5.53
2023-01-18T09:50:42.010Z,3.20
2023-01-18T09:53:46.203Z,3.80
2023-01-18T09:56:24.232Z,2.33
2023-01-18T09:59:13.973Z,5.57
2023-01-18T10:01:41.904Z,3.73
2023-01-18T10:04:23.999Z,4.77
2023-01-18T10:07:03.911Z,2.43
2023-01-18T10:09:42.131Z,2.30
2023-01-18T10:12:20.519Z,2.53
2023-01-18T10:15:17.446Z,3.27
2023-01-18T10:17:46.243Z,3.17
2023-01-18T10:20:41.811Z,3.40
2023-01-18T10:23:25.877Z,3.80
2023-01-18T10:26:01.725Z,4.60
2023-01-18T10:28:59.175Z,3.10
2023-01-18T10:31:57.363Z,3.00
2023-01-18T10:34:29.944Z,3.03
2023-01-18T10:37:14.912Z,2.97
2023-01-18T10:39:52.167Z,6.33
2023-01-18T10:42:49.933Z,3.80
2023-01-18T10:45:26.509Z,3.73
2023-01-18T10:47:56.247Z,3.67
2023-01-18T10:50:53.260Z,3.50
2023-01-18T10:53:32.401Z,4.83
2023-01-18T10:56:21.023Z,3.47
2023-01-18T10:59:21.427Z,4.87
2023-01-18T11:01:57.255Z,4.40
2023-01-18T11:04:30.791Z,4.67
2023-01-18T11:07:02.897Z,5.80
2023-01-18T11:10:09.677Z,5.40
2023-01-18T11:12:47.949Z,5.43
2023-01-18T11:15:27.216Z,8.50
2023-01-18T11:18:13.268Z,5.60
2023-01-18T11:20:50.834Z,7.03
2023-01-18T11:23:29.721Z,5.07
2023-01-18T11:26:05.293Z,5.23
2023-01-18T11:28:40.437Z,5.40
2023-01-18T11:31:16.109Z,4.87
2023-01-18T11:34:04.865Z,4.90
2023-01-18T11:36:41.101Z,4.67
2023-01-18T11:39:35.843Z,4.83
2023-01-18T11:42:27.378Z,4.53
2023-01-18T11:45:05.343Z,4.93
2023-01-18T11:48:07.783Z,4.33
2023-01-18T11:51:01.044Z,5.93
2023-01-18T11:54:06.961Z,4.97
2023-01-18T11:56:50.850Z,5.37
2023-01-18T11:59:36.716Z,5.50
2023-01-18T12:02:46.170Z,7.07
2023-01-18T12:05:40.438Z,5.50
2023-01-18T12:08:47.562Z,5.50
2023-01-18T12:11:38.858Z,6.37
2023-01-18T12:15:00.334Z,6.53
2023-01-18T12:18:13.948Z,5.80
2023-01-18T12:21:10.651Z,5.33
2023-01-18T12:24:28.439Z,8.07
2023-01-18T12:27:22.033Z,5.33
2023-01-18T12:30:46.025Z,6.73
2023-01-18T12:33:47.532Z,6.37
2023-01-18T12:36:42.664Z,5.47
2023-01-18T12:39:49.520Z,5.20
2023-01-18T12:48:54.748Z,7.67
2023-01-18T12:51:24.625Z,5.73
2023-01-18T12:53:58.809Z,9.13
2023-01-18T12:56:42.320Z,6.67
2023-01-18T12:59:19.690Z,6.90
2023-01-18T13:01:54.143Z,6.53
2023-01-18T13:04:26.495Z,6.80
2023-01-18T13:06:58.478Z,5.53
2023-01-18T13:09:34.269Z,6.23
2023-01-18T13:12:03.881Z,5.60
2023-01-18T13:14:54.073Z,8.77
2023-01-18T13:17:33.031Z,8.63
2023-01-18T13:20:12.610Z,7.33
2023-01-18T13:23:26.373Z,5.20
2023-01-18T13:26:25.984Z,7.57
2023-01-18T13:29:29.988Z,7.90
2023-01-18T13:31:58.148Z,5.27
2023-01-18T13:34:39.991Z,6.47
2023-01-18T13:37:47.841Z,6.67
2023-01-18T13:40:52.078Z,7.93
2023-01-18T13:44:11.689Z,5.23
2023-01-18T13:46:39.665Z,5.07
2023-01-18T13:49:38.268Z,6.93
2023-01-18T13:52:35.953Z,4.40
2023-01-18T13:55:23.543Z,6.17
2023-01-18T13:57:55.908Z,6.77
2023-01-18T14:00:24.736Z,7.17
2023-01-18T14:02:56.821Z,9.00
2023-01-18T14:05:28.877Z,6.17
2023-01-18T14:08:01.852Z,5.63
2023-01-18T14:10:46.997Z,7.67
2023-01-18T14:13:18.009Z,4.53
2023-01-18T14:16:03.230Z,7.33
2023-01-18T14:18:31.175Z,7.90
2023-01-18T14:21:37.735Z,7.10
2023-01-18T14:24:46.064Z,9.87
2023-01-18T14:27:20.521Z,7.00
2023-01-18T14:30:10.104Z,6.03
2023-01-18T14:32:45.700Z,8.50
2023-01-18T14:35:23.949Z,7.47
2023-01-18T14:37:53.243Z,7.07
2023-01-18T14:40:28.936Z,6.53
2023-01-18T14:43:01.797Z,8.97
2023-01-18T14:45:35.505Z,7.30
2023-01-18T14:48:12.826Z,7.23
2023-01-18T14:50:48.461Z,8.10
2023-01-18T14:53:29.107Z,6.70
2023-01-18T14:56:21.967Z,7.40
2023-01-18T14:59:00.599Z,10.30
2023-01-18T15:01:37.217Z,6.77
2023-01-18T15:04:17.149Z,6.87
2023-01-18T15:07:02.007Z,8.03
2023-01-18T15:09:32.861Z,6.10
2023-01-18T15:12:02.242Z,7.47
2023-01-18T15:14:33.219Z,7.00
2023-01-18T15:17:02.048Z,10.70
2023-01-18T15:19:41.272Z,9.17
2023-01-18T15:22:13.757Z,12.60
2023-01-18T15:24:43.020Z,11.20
2023-01-18T15:27:20.617Z,8.70
2023-01-18T15:29:50.822Z,9.70
2023-01-18T15:32:21.568Z,10.20
2023-01-18T15:34:50.993Z,11.63
2023-01-18T15:37:33.713Z,9.70
2023-01-18T15:40:35.909Z,10.63
2023-01-18T15:43:09.638Z,11.53
2023-01-18T15:45:39.607Z,11.03
2023-01-18T15:48:18.667Z,13.40
2023-01-18T15:50:52.513Z,9.60
2023-01-18T15:53:32.082Z,11.83
2023-01-18T15:56:03.502Z,10.10
2023-01-18T15:58:50.269Z,11.00
2023-01-18T16:01:20.785Z,10.93
2023-01-18T16:04:34.048Z,34.43
2023-01-18T16:07:42.106Z,14.40
2023-01-18T16:10:30.616Z,37.57
2023-01-18T16:13:42.902Z,31.87
2023-01-18T16:16:28.835Z,12.67
2023-01-18T16:19:23.329Z,15.13
2023-01-18T16:22:00.118Z,13.03
2023-01-18T16:24:32.080Z,15.37
2023-01-18T16:27:11.125Z,12.33
2023-01-18T16:29:44.783Z,11.37
2023-01-18T16:32:39.081Z,13.67
2023-01-18T16:35:31.121Z,10.40
2023-01-18T16:37:58.623Z,17.80
2023-01-18T16:40:25.951Z,14.57
2023-01-18T16:43:34.076Z,14.63
2023-01-18T16:46:03.042Z,13.53
2023-01-18T16:48:31.156Z,13.00
2023-01-18T16:51:01.322Z,14.63
2023-01-18T16:53:29.132Z,15.40
2023-01-18T16:55:56.766Z,13.37
2023-01-18T16:58:24.280Z,13.70
2023-01-18T17:00:58.835Z,14.67
2023-01-18T17:03:26.373Z,19.37
2023-01-18T17:05:53.872Z,15.97
2023-01-18T17:08:21.148Z,15.37
2023-01-18T17:10:49.678Z,13.47
2023-01-18T17:13:17.387Z,18.47
2023-01-18T17:15:45.621Z,13.27
2023-01-18T17:18:18.475Z,15.97
2023-01-18T17:20:45.693Z,15.70
2023-01-18T17:23:12.733Z,18.77
2023-01-18T17:25:40.558Z,17.13
2023-01-18T17:28:08.702Z,19.00
2023-01-18T17:30:37.340Z,16.87
2023-01-18T17:33:04.600Z,19.60
2023-01-18T17:35:32.633Z,27.57
2023-01-18T17:38:06.548Z,31.23
2023-01-18T17:40:41.736Z,21.67
2023-01-18T17:43:22.148Z,19.17
2023-01-18T17:46:00.745Z,22.40
2023-01-18T17:48:28.920Z,18.23
2023-01-18T17:50:56.168Z,19.37
2023-01-18T17:53:23.299Z,19.83
2023-01-18T17:55:50.578Z,17.47
2023-01-18T17:58:17.906Z,18.20
2023-01-18T18:00:45.403Z,25.07
2023-01-18T18:03:13.326Z,21.53
2023-01-18T18:05:40.765Z,19.27
2023-01-18T18:08:09.075Z,14.37
2023-01-18T18:10:36.234Z,14.57
2023-01-18T18:13:03.821Z,15.63
2023-01-18T18:15:31.230Z,17.60
2023-01-18T18:17:58.576Z,16.23
2023-01-18T18:20:25.841Z,20.17
2023-01-18T18:22:52.902Z,18.63
2023-01-18T18:25:19.988Z,17.80
2023-01-18T18:27:47.595Z,26.13
2023-01-18T18:30:15.860Z,16.87
2023-01-18T18:32:42.932Z,16.37
2023-01-18T18:35:26.567Z,16.33
2023-01-18T18:37:54.568Z,16.40
2023-01-18T18:40:22.176Z,17.93
2023-01-18T18:43:01.342Z,17.33
2023-01-18T18:45:31.620Z,18.67
2023-01-18T18:47:59.148Z,19.07
2023-01-18T18:50:26.335Z,23.50
2023-01-18T18:52:53.858Z,21.27
2023-01-18T18:55:21.129Z,19.53
2023-01-18T18:57:48.350Z,18.53
2023-01-18T19:00:16.158Z,17.73
2023-01-18T19:02:43.412Z,21.30
2023-01-18T19:05:13.357Z,17.10
2023-01-18T19:07:42.490Z,19.67
2023-01-18T19:10:11.644Z,21.10
2023-01-18T19:12:38.749Z,19.60
2023-01-18T19:15:06.439Z,19.17
2023-01-18T19:17:33.502Z,20.53
2023-01-18T19:20:00.593Z,19.53
2023-01-18T19:22:27.651Z,19.10
2023-01-18T19:24:54.966Z,19.20
2023-01-18T19:27:24.626Z,19.53
2023-01-18T19:29:53.491Z,24.70
2023-01-18T19:32:20.871Z,20.70
2023-01-18T19:34:47.986Z,18.77
2023-01-18T19:37:15.106Z,21.70
2023-01-18T19:39:42.215Z,22.97
2023-01-18T19:42:09.301Z,23.00
2023-01-18T19:44:41.110Z,21.10
2023-01-18T19:47:08.467Z,21.90
2023-01-18T19:49:35.497Z,24.53
2023-01-18T19:52:02.674Z,21.17
2023-01-18T19:54:29.720Z,26.33
2023-01-18T19:56:56.785Z,20.70
2023-01-18T19:59:23.944Z,20.50
2023-01-18T20:01:52.394Z,24.90
2023-01-18T20:04:19.710Z,21.73
2023-01-18T20:06:46.983Z,28.03
2023-01-18T20:09:27.000Z,21.00
2023-01-18T20:11:56.743Z,21.40
2023-01-18T20:14:30.647Z,21.10
2023-01-18T20:17:00.725Z,22.13
2023-01-18T20:19:27.878Z,24.10
2023-01-18T20:21:54.982Z,26.67
2023-01-18T20:24:22.037Z,26.93
2023-01-18T20:26:49.137Z,24.60
2023-01-18T20:29:16.240Z,21.00
2023-01-18T20:31:49.708Z,21.77
2023-01-18T20:34:17.447Z,22.97
2023-01-18T20:36:46.111Z,20.47
2023-01-18T20:39:13.474Z,14.00
2023-01-18T20:41:40.937Z,19.07
2023-01-18T20:44:08.307Z,25.93
2023-01-18T20:46:35.647Z,19.37
2023-01-18T20:49:03.723Z,21.77
2023-01-18T20:51:34.024Z,18.70
2023-01-18T20:54:02.276Z,15.37
2023-01-18T20:56:30.700Z,21.70
2023-01-18T20:58:58.476Z,20.70
2023-01-18T21:01:32.255Z,17.63
2023-01-18T21:04:01.964Z,20.07
2023-01-18T21:06:29.743Z,18.07
2023-01-18T21:08:58.478Z,18.90
2023-01-18T21:11:26.999Z,18.90
2023-01-18T21:13:55.323Z,17.97
2023-01-18T21:16:23.580Z,25.13
2023-01-18T21:18:52.841Z,22.73
2023-01-18T21:21:20.958Z,17.70
2023-01-18T21:23:48.368Z,17.80
2023-01-18T21:26:15.522Z,19.23
2023-01-18T21:28:42.690Z,21.53
2023-01-18T21:31:10.025Z,17.30
2023-01-18T21:33:37.624Z,17.20
2023-01-18T21:36:11.413Z,21.10
2023-01-18T21:38:38.673Z,20.43
2023-01-18T21:41:38.535Z,21.33
2023-01-18T21:44:24.731Z,18.43
2023-01-18T21:46:52.803Z,18.10
2023-01-18T21:50:04.008Z,22.67
2023-01-18T21:52:47.809Z,19.33
2023-01-18T21:55:15.880Z,19.17
2023-01-18T21:57:43.007Z,19.53
2023-01-18T22:00:11.262Z,17.90
2023-01-18T22:02:38.751Z,18.70
2023-01-18T22:05:08.638Z,17.27
2023-01-18T22:07:36.121Z,15.30
2023-01-18T22:10:08.624Z,17.87
2023-01-18T22:12:36.501Z,16.17
2023-01-18T22:15:07.152Z,17.60
2023-01-18T22:17:34.272Z,15.87
2023-01-18T22:20:02.142Z,19.23
2023-01-18T22:22:29.419Z,16.10
2023-01-18T22:24:57.159Z,15.67
2023-01-18T22:27:24.352Z,17.57
2023-01-18T22:29:51.409Z,17.57
2023-01-18T22:32:18.561Z,18.13
2023-01-18T22:34:45.612Z,22.10
2023-01-18T22:37:12.759Z,16.60
2023-01-18T22:39:39.995Z,20.50
2023-01-18T22:42:07.178Z,18.40
2023-01-18T22:44:34.246Z,17.27
2023-01-18T22:47:01.354Z,19.00
2023-01-18T22:49:28.450Z,18.00
2023-01-18T22:51:55.560Z,20.97
2023-01-18T22:54:23.079Z,19.20
2023-01-18T22:56:50.395Z,19.53
2023-01-18T22:59:17.501Z,20.23
2023-01-18T23:01:44.907Z,19.13
2023-01-18T23:04:12.233Z,19.27
2023-01-18T23:06:46.974Z,16.23
2023-01-18T23:09:16.418Z,20.53
2023-01-18T23:11:44.852Z,20.00
2023-01-18T23:14:30.594Z,19.07
2023-01-18T23:17:16.240Z,23.87
2023-01-18T23:19:43.307Z,15.83
2023-01-18T23:22:11.305Z,19.13
2023-01-18T23:24:39.324Z,19.10
2023-01-18T23:27:07.803Z,18.30
2023-01-18T23:29:35.150Z,18.37
2023-01-18T23:32:02.314Z,18.93
2023-01-18T23:34:29.414Z,20.10
2023-01-18T23:36:56.384Z,18.70
2023-01-18T23:39:42.117Z,20.13
2023-01-18T23:42:27.614Z,19.20
2023-01-18T23:45:13.064Z,16.03
2023-01-18T23:47:58.874Z,20.93
2023-01-18T23:50:44.658Z,23.23
2023-01-18T23:53:31.849Z,21.73
2023-01-18T23:55:59.705Z,21.17
2023-01-18T23:58:27.095Z,17.03
